createdAt,value
2018-07-03T00:00:38.767Z,19.12
2018-07-03T00:03:06.526Z,19.10
2018-07-03T00:05:34.338Z,19.05
2018-07-03T00:08:02.085Z,19.05
2018-07-03T00:10:29.879Z,19.00
2018-07-03T00:12:58.019Z,18.94
2018-07-03T00:15:25.883Z,18.88
2018-07-03T00:17:55.255Z,18.83
2018-07-03T00:20:23.012Z,18.80
2018-07-03T00:22:51.131Z,18.77
2018-07-03T00:25:18.916Z,18.70
2018-07-03T00:27:46.679Z,18.62
2018-07-03T00:30:14.428Z,18.57
2018-07-03T00:32:42.665Z,18.53
2018-07-03T00:35:10.397Z,18.51
2018-07-03T00:37:38.182Z,18.45
2018-07-03T00:40:05.966Z,18.41
2018-07-03T00:42:34.853Z,18.36
2018-07-03T00:45:02.617Z,18.31
2018-07-03T00:47:30.370Z,18.27
2018-07-03T00:49:58.666Z,18.21
2018-07-03T00:52:26.784Z,18.16
2018-07-03T00:54:54.517Z,18.11
2018-07-03T00:57:22.285Z,18.05
2018-07-03T00:59:50.041Z,18.01
2018-07-03T01:02:18.225Z,17.97
2018-07-03T01:04:45.979Z,17.93
2018-07-03T01:07:13.742Z,17.89
2018-07-03T01:09:42.099Z,17.85
2018-07-03T01:12:10.319Z,17.82
2018-07-03T01:14:38.733Z,17.75
2018-07-03T01:17:06.476Z,17.72
2018-07-03T01:19:35.405Z,17.71
2018-07-03T01:22:03.654Z,17.68
2018-07-03T01:24:31.444Z,17.63
2018-07-03T01:26:59.617Z,17.57
2018-07-03T01:29:27.592Z,17.51
2018-07-03T01:31:55.959Z,17.45
2018-07-03T01:34:23.717Z,17.42
2018-07-03T01:36:52.420Z,17.38
2018-07-03T01:39:23.902Z,17.37
2018-07-03T01:41:52.101Z,17.32
2018-07-03T01:44:19.874Z,17.25
2018-07-03T01:46:47.635Z,17.21
2018-07-03T01:49:15.397Z,17.18
2018-07-03T01:51:43.649Z,17.14
2018-07-03T01:54:11.397Z,17.11
2018-07-03T01:56:39.140Z,17.09
2018-07-03T01:59:07.356Z,17.10
2018-07-03T02:01:35.100Z,17.12
2018-07-03T02:04:02.891Z,17.13
2018-07-03T02:06:30.976Z,17.09
2018-07-03T02:08:58.726Z,17.04
2018-07-03T02:11:26.463Z,17.00
2018-07-03T02:13:54.251Z,16.96
2018-07-03T02:16:22.432Z,16.92
2018-07-03T02:18:50.215Z,16.87
2018-07-03T02:21:17.968Z,16.84
2018-07-03T02:23:45.741Z,16.80
2018-07-03T02:26:13.871Z,16.77
2018-07-03T02:28:41.631Z,16.74
2018-07-03T02:31:09.386Z,16.70
2018-07-03T02:33:37.500Z,16.67
2018-07-03T02:36:05.348Z,16.63
2018-07-03T02:38:33.102Z,16.61
2018-07-03T02:41:00.883Z,16.56
2018-07-03T02:43:28.959Z,16.49
2018-07-03T02:45:56.711Z,16.39
2018-07-03T02:48:24.479Z,16.31
2018-07-03T02:50:52.273Z,16.25
2018-07-03T02:53:20.315Z,16.19
2018-07-03T02:55:48.105Z,16.14
2018-07-03T02:58:15.844Z,16.10
2018-07-03T03:00:43.588Z,16.07
2018-07-03T03:03:11.709Z,16.06
2018-07-03T03:05:39.485Z,16.03
2018-07-03T03:08:07.250Z,16.00
2018-07-03T03:10:35.028Z,15.95
2018-07-03T03:13:03.241Z,15.88
2018-07-03T03:15:31.013Z,15.84
2018-07-03T03:17:58.843Z,15.84
2018-07-03T03:20:29.015Z,15.84
2018-07-03T03:22:56.762Z,15.82
2018-07-03T03:25:24.652Z,15.83
2018-07-03T03:27:52.411Z,15.84
2018-07-03T03:30:20.496Z,15.86
2018-07-03T03:32:49.077Z,15.89
2018-07-03T03:35:16.908Z,15.89
2018-07-03T03:37:45.100Z,15.86
2018-07-03T03:40:12.926Z,15.85
2018-07-03T03:42:40.683Z,15.82
2018-07-03T03:45:08.528Z,15.82
2018-07-03T03:47:36.570Z,15.87
2018-07-03T03:50:04.338Z,15.85
2018-07-03T03:52:32.075Z,15.84
2018-07-03T03:54:59.826Z,15.81
2018-07-03T03:57:28.048Z,15.77
2018-07-03T03:59:56.209Z,15.78
2018-07-03T04:02:24.795Z,15.77
2018-07-03T04:04:52.557Z,15.76
2018-07-03T04:07:20.309Z,15.74
2018-07-03T04:09:48.591Z,15.76
2018-07-03T04:12:16.680Z,15.76
2018-07-03T04:14:44.428Z,15.76
2018-07-03T04:17:13.992Z,15.78
2018-07-03T04:19:41.736Z,15.80
2018-07-03T04:22:10.407Z,15.82
2018-07-03T04:24:39.647Z,15.82
2018-07-03T04:27:07.731Z,15.83
2018-07-03T04:29:35.923Z,15.86
2018-07-03T04:32:04.612Z,15.86
2018-07-03T04:34:32.386Z,15.89
2018-07-03T04:37:00.476Z,15.93
2018-07-03T04:39:29.021Z,15.99
2018-07-03T04:41:56.785Z,16.05
2018-07-03T04:44:24.888Z,16.11
2018-07-03T04:46:52.719Z,16.13
2018-07-03T04:49:20.669Z,16.16
2018-07-03T04:51:48.904Z,16.23
2018-07-03T04:54:16.947Z,16.29
2018-07-03T04:56:44.735Z,16.34
2018-07-03T04:59:13.083Z,16.37
2018-07-03T05:01:40.945Z,16.42
2018-07-03T05:04:08.960Z,16.45
2018-07-03T05:06:36.730Z,16.50
2018-07-03T05:09:05.464Z,16.54
2018-07-03T05:11:33.696Z,16.59
2018-07-03T05:14:01.435Z,16.62
2018-07-03T05:16:29.903Z,16.66
2018-07-03T05:18:58.103Z,16.70
2018-07-03T05:21:25.856Z,16.73
2018-07-03T05:23:53.634Z,16.77
2018-07-03T05:26:22.624Z,16.83
2018-07-03T05:28:51.162Z,16.91
2018-07-03T05:31:18.961Z,16.96
2018-07-03T05:33:47.065Z,17.03
2018-07-03T05:36:15.854Z,17.11
2018-07-03T05:38:43.753Z,17.18
2018-07-03T05:41:12.079Z,17.23
2018-07-03T05:43:39.829Z,17.33
2018-07-03T05:46:07.579Z,17.38
2018-07-03T05:48:35.841Z,17.42
2018-07-03T05:51:03.665Z,17.47
2018-07-03T05:53:31.450Z,17.54
2018-07-03T05:55:59.591Z,17.61
2018-07-03T05:58:27.335Z,17.66
2018-07-03T06:00:57.438Z,17.74
2018-07-03T06:03:26.052Z,17.80
2018-07-03T06:05:53.816Z,17.87
2018-07-03T06:08:21.807Z,17.95
2018-07-03T06:10:50.590Z,18.02
2018-07-03T06:13:18.553Z,18.10
2018-07-03T06:15:46.405Z,18.19
2018-07-03T06:20:45.936Z,18.34
2018-07-03T06:23:13.724Z,18.49
2018-07-03T06:25:41.820Z,18.60
2018-07-03T06:28:09.611Z,18.68
2018-07-03T06:30:39.319Z,18.79
2018-07-03T06:33:07.447Z,18.88
2018-07-03T06:35:35.196Z,18.97
2018-07-03T06:38:02.960Z,19.09
2018-07-03T06:40:30.991Z,19.17
2018-07-03T06:42:58.754Z,19.24
2018-07-03T06:45:26.509Z,19.34
2018-07-03T06:47:54.719Z,19.44
2018-07-03T06:50:22.477Z,19.53
2018-07-03T06:52:50.255Z,19.61
2018-07-03T06:55:18.951Z,19.69
2018-07-03T06:57:46.756Z,19.78
2018-07-03T07:00:14.728Z,19.87
2018-07-03T07:02:42.770Z,19.97
2018-07-03T07:05:13.541Z,20.05
2018-07-03T07:07:51.278Z,20.14
2018-07-03T07:10:21.000Z,20.23
2018-07-03T07:12:48.757Z,20.32
2018-07-03T07:15:16.784Z,20.41
2018-07-03T07:17:46.176Z,20.49
2018-07-03T07:20:13.966Z,20.59
2018-07-03T07:22:41.712Z,20.67
2018-07-03T07:25:10.757Z,20.75
2018-07-03T07:27:38.492Z,20.82
2018-07-03T07:30:06.363Z,20.90
2018-07-03T07:32:34.392Z,20.98
2018-07-03T07:35:03.390Z,21.07
2018-07-03T07:37:31.712Z,21.14
2018-07-03T07:39:59.826Z,21.22
2018-07-03T07:42:27.872Z,21.28
2018-07-03T07:44:55.932Z,21.36
2018-07-03T07:47:25.169Z,21.43
2018-07-03T07:49:53.464Z,21.50
2018-07-03T07:52:21.204Z,21.58
2018-07-03T07:54:50.466Z,21.64
2018-07-03T07:57:18.450Z,21.74
2018-07-03T07:59:47.266Z,21.81
2018-07-03T08:02:16.460Z,21.89
2018-07-03T08:04:44.226Z,21.99
2018-07-03T08:07:13.602Z,22.06
2018-07-03T08:09:43.121Z,22.14
2018-07-03T08:12:11.039Z,22.21
2018-07-03T08:14:38.881Z,22.28
2018-07-03T08:17:06.927Z,22.37
2018-07-03T08:19:35.253Z,22.46
2018-07-03T08:22:05.594Z,22.56
2018-07-03T08:24:33.765Z,22.69
2018-07-03T08:27:01.641Z,22.78
2018-07-03T08:29:29.425Z,22.89
2018-07-03T08:31:57.470Z,22.99
2018-07-03T08:34:25.228Z,23.08
2018-07-03T08:36:53.009Z,23.17
2018-07-03T08:39:22.681Z,23.29
2018-07-03T08:41:50.486Z,23.39
2018-07-03T08:44:18.237Z,23.49
2018-07-03T08:46:47.413Z,23.55
2018-07-03T08:49:15.851Z,23.66
2018-07-03T08:51:43.799Z,23.81
2018-07-03T08:54:12.919Z,23.98
2018-07-03T08:56:42.034Z,24.12
2018-07-03T08:59:10.430Z,24.26
2018-07-03T09:01:39.353Z,24.40
2018-07-03T09:04:07.912Z,24.57
2018-07-03T09:06:35.665Z,24.72
2018-07-03T09:09:09.096Z,24.86
2018-07-03T09:11:36.902Z,24.98
2018-07-03T09:14:04.865Z,25.09
2018-07-03T09:16:34.648Z,25.20
2018-07-03T09:19:03.087Z,25.31
2018-07-03T09:21:30.813Z,25.43
2018-07-03T09:24:03.159Z,25.53
2018-07-03T09:26:35.933Z,25.62
2018-07-03T09:29:04.567Z,25.73
2018-07-03T09:31:32.396Z,25.82
2018-07-03T09:34:01.336Z,25.88
2018-07-03T09:36:30.647Z,25.94
2018-07-03T09:38:58.533Z,26.01
2018-07-03T09:41:27.815Z,26.11
2018-07-03T09:43:55.892Z,26.19
2018-07-03T09:46:24.513Z,26.24
2018-07-03T09:48:53.350Z,26.32
2018-07-03T09:51:22.113Z,26.42
2018-07-03T09:53:52.250Z,26.53
2018-07-03T09:56:20.030Z,26.63
2018-07-03T09:58:49.534Z,26.72
2018-07-03T10:01:22.836Z,26.82
2018-07-03T10:03:51.419Z,26.91
2018-07-03T10:06:24.103Z,27.00
2018-07-03T10:08:53.543Z,27.10
2018-07-03T10:11:21.856Z,27.20
2018-07-03T10:13:51.489Z,27.27
2018-07-03T10:16:20.063Z,27.34
2018-07-03T10:18:49.379Z,27.44
2018-07-03T10:21:21.244Z,27.50
2018-07-03T10:23:50.278Z,27.49
2018-07-03T10:26:18.137Z,27.49
2018-07-03T10:28:46.976Z,27.42
2018-07-03T10:31:15.047Z,27.41
2018-07-03T10:33:46.132Z,27.50
2018-07-03T10:36:14.663Z,27.59
2018-07-03T10:38:47.123Z,27.62
2018-07-03T10:41:15.718Z,27.72
2018-07-03T10:43:46.408Z,27.86
2018-07-03T10:46:14.306Z,27.99
2018-07-03T10:48:44.655Z,28.11
2018-07-03T10:51:14.376Z,28.21
2018-07-03T10:53:45.971Z,28.26
2018-07-03T10:56:15.332Z,28.37
2018-07-03T10:58:52.301Z,28.48
2018-07-03T11:01:20.893Z,28.59
2018-07-03T11:03:49.472Z,28.64
2018-07-03T11:06:18.560Z,28.72
2018-07-03T11:08:48.690Z,28.78
2018-07-03T11:11:17.301Z,28.88
2018-07-03T11:13:47.630Z,28.96
2018-07-03T11:16:18.442Z,29.03
2018-07-03T11:18:47.582Z,29.03
2018-07-03T11:21:16.738Z,29.07
2018-07-03T11:23:52.817Z,29.15
2018-07-03T11:26:20.959Z,29.16
2018-07-03T11:28:58.043Z,29.20
2018-07-03T11:31:25.840Z,29.31
2018-07-03T11:33:55.057Z,29.43
2018-07-03T11:36:23.391Z,29.55
2018-07-03T11:38:51.370Z,29.66
2018-07-03T11:41:19.214Z,29.72
2018-07-03T11:43:48.221Z,29.74
2018-07-03T11:46:16.630Z,29.73
2018-07-03T11:48:44.376Z,29.77
2018-07-03T11:51:12.634Z,29.73
2018-07-03T11:53:40.562Z,29.78
2018-07-03T11:56:09.344Z,29.85
2018-07-03T11:58:38.547Z,29.94
2018-07-03T12:01:07.102Z,30.05
2018-07-03T12:03:35.050Z,30.12
2018-07-03T12:06:04.458Z,30.19
2018-07-03T12:08:32.255Z,30.25
2018-07-03T12:11:00.021Z,30.29
2018-07-03T12:13:29.310Z,30.38
2018-07-03T12:15:57.968Z,30.52
2018-07-03T12:18:31.584Z,30.60
2018-07-03T12:21:00.387Z,30.67
2018-07-03T12:23:30.128Z,30.78
2018-07-03T12:28:35.528Z,31.08
2018-07-03T12:31:03.526Z,31.18
2018-07-03T12:33:31.780Z,31.22
2018-07-03T12:36:02.166Z,31.32
2018-07-03T12:38:29.955Z,31.36
2018-07-03T12:40:58.790Z,31.34
2018-07-03T12:43:26.826Z,31.41
2018-07-03T12:45:55.115Z,31.46
2018-07-03T12:48:31.779Z,31.46
2018-07-03T12:51:00.694Z,31.59
2018-07-03T12:53:28.465Z,31.70
2018-07-03T12:56:02.713Z,31.84
2018-07-03T12:58:30.542Z,31.96
2018-07-03T13:00:58.485Z,32.02
2018-07-03T13:03:31.438Z,32.06
2018-07-03T13:05:59.252Z,32.05
2018-07-03T13:08:28.630Z,32.02
2018-07-03T13:10:56.725Z,32.02
2018-07-03T13:13:25.508Z,32.17
2018-07-03T13:15:55.672Z,32.28
2018-07-03T13:18:24.908Z,32.41
2018-07-03T13:20:54.074Z,32.45
2018-07-03T13:23:21.886Z,32.50
2018-07-03T13:25:51.479Z,32.54
2018-07-03T13:28:19.336Z,32.58
2018-07-03T13:30:47.320Z,32.66
2018-07-03T13:33:15.361Z,32.86
2018-07-03T13:35:43.151Z,33.07
2018-07-03T13:38:10.944Z,33.16
2018-07-03T13:40:39.021Z,33.28
2018-07-03T13:43:07.387Z,33.37
2018-07-03T13:45:39.369Z,33.45
2018-07-03T13:48:09.511Z,33.55
2018-07-03T13:50:39.485Z,33.65
2018-07-03T13:53:07.279Z,33.79
2018-07-03T13:55:35.397Z,33.86
2018-07-03T13:58:03.252Z,33.80
2018-07-03T14:00:31.028Z,33.63
2018-07-03T14:02:59.985Z,33.44
2018-07-03T14:05:27.951Z,33.26
2018-07-03T14:07:55.707Z,33.15
2018-07-03T14:10:25.406Z,33.24
2018-07-03T14:12:54.503Z,33.24
2018-07-03T14:15:22.293Z,33.30
2018-07-03T14:17:55.582Z,33.40
2018-07-03T14:20:25.256Z,33.46
2018-07-03T14:22:56.330Z,33.53
2018-07-03T14:25:24.423Z,33.63
2018-07-03T14:27:52.384Z,33.72
2018-07-03T14:30:20.426Z,33.76
2018-07-03T14:32:51.625Z,33.84
2018-07-03T14:35:20.250Z,33.92
2018-07-03T14:37:48.540Z,33.94
2018-07-03T14:40:16.610Z,34.07
2018-07-03T14:42:44.640Z,34.14
2018-07-03T14:45:14.366Z,34.18
2018-07-03T14:47:42.537Z,34.20
2018-07-03T14:50:11.248Z,34.22
2018-07-03T14:52:43.267Z,34.34
2018-07-03T14:55:11.462Z,34.49
2018-07-03T14:57:39.252Z,34.52
2018-07-03T15:00:07.308Z,34.59
2018-07-03T15:02:35.392Z,34.72
2018-07-03T15:05:03.823Z,34.75
2018-07-03T15:07:31.577Z,34.85
2018-07-03T15:10:00.846Z,34.94
2018-07-03T15:12:29.554Z,34.97
2018-07-03T15:14:58.192Z,34.95
2018-07-03T15:17:26.453Z,34.77
2018-07-03T15:20:02.033Z,34.70
2018-07-03T15:22:30.460Z,34.69
2018-07-03T15:24:58.539Z,34.72
2018-07-03T15:27:31.299Z,34.76
2018-07-03T15:29:59.338Z,34.85
2018-07-03T15:32:29.170Z,34.97
2018-07-03T15:34:56.974Z,35.02
2018-07-03T15:37:25.260Z,35.00
2018-07-03T15:39:54.540Z,34.89
2018-07-03T15:42:23.829Z,34.80
2018-07-03T15:44:52.548Z,34.80
2018-07-03T15:47:21.452Z,34.81
2018-07-03T15:49:50.011Z,34.80
2018-07-03T15:52:17.823Z,34.85
2018-07-03T15:54:47.698Z,34.85
2018-07-03T15:57:15.476Z,34.87
2018-07-03T15:59:43.624Z,34.88
2018-07-03T16:02:11.744Z,34.86
2018-07-03T16:04:40.536Z,34.90
2018-07-03T16:07:09.490Z,34.98
2018-07-03T16:09:39.470Z,35.02
2018-07-03T16:12:08.652Z,35.06
2018-07-03T16:14:37.494Z,34.98
2018-07-03T16:17:10.180Z,34.94
2018-07-03T16:20:46.050Z,34.88
2018-07-03T16:23:20.455Z,34.71
2018-07-03T16:25:48.329Z,34.73
2018-07-03T16:28:16.128Z,34.68
2018-07-03T16:30:44.354Z,34.56
2018-07-03T16:33:13.111Z,34.46
2018-07-03T16:35:42.306Z,34.42
2018-07-03T16:38:11.286Z,34.33
2018-07-03T16:40:39.332Z,34.28
2018-07-03T16:43:07.294Z,34.28
2018-07-03T16:45:35.399Z,34.34
2018-07-03T16:48:03.243Z,34.41
2018-07-03T16:50:31.803Z,34.37
2018-07-03T16:53:00.804Z,34.24
2018-07-03T16:57:59.269Z,34.20
2018-07-03T17:00:29.213Z,34.29
2018-07-03T17:02:57.335Z,34.28
2018-07-03T17:05:25.653Z,34.25
2018-07-03T17:07:53.814Z,34.31
2018-07-03T17:10:21.597Z,34.37
2018-07-03T17:12:50.563Z,34.37
2018-07-03T17:15:18.866Z,34.30
2018-07-03T17:17:47.722Z,34.20
2018-07-03T17:20:15.708Z,34.09
2018-07-03T17:22:44.571Z,34.08
2018-07-03T17:25:12.395Z,34.05
2018-07-03T17:27:41.868Z,33.91
2018-07-03T17:30:10.338Z,33.86
2018-07-03T17:32:39.052Z,33.87
2018-07-03T17:35:07.378Z,33.79
2018-07-03T17:37:35.675Z,33.66
2018-07-03T17:40:03.468Z,33.58
2018-07-03T17:42:32.395Z,33.53
2018-07-03T17:45:00.734Z,33.47
2018-07-03T17:47:28.575Z,33.46
2018-07-03T17:50:00.213Z,33.45
2018-07-03T17:52:28.369Z,33.39
2018-07-03T17:54:56.939Z,33.36
2018-07-03T17:57:24.787Z,33.31
2018-07-03T17:59:54.053Z,33.31
2018-07-03T18:02:22.239Z,33.25
2018-07-03T18:04:51.621Z,33.23
2018-07-03T18:07:19.895Z,33.21
2018-07-03T18:09:52.315Z,33.18
2018-07-03T18:12:20.755Z,33.10
2018-07-03T18:14:49.660Z,33.01
2018-07-03T18:17:17.483Z,32.96
2018-07-03T18:19:46.317Z,32.91
2018-07-03T18:22:19.437Z,32.91
2018-07-03T18:24:47.224Z,32.86
2018-07-03T18:27:16.712Z,32.78
2018-07-03T18:29:45.390Z,32.65
2018-07-03T18:32:15.296Z,32.46
2018-07-03T18:34:44.072Z,32.29
2018-07-03T18:37:15.301Z,32.14
2018-07-03T18:39:43.993Z,32.01
2018-07-03T18:42:12.561Z,31.88
2018-07-03T18:44:41.674Z,31.74
2018-07-03T18:47:10.474Z,31.63
2018-07-03T18:49:40.165Z,31.47
2018-07-03T18:52:08.593Z,31.34
2018-07-03T18:54:37.899Z,31.21
2018-07-03T18:57:10.752Z,31.12
2018-07-03T18:59:39.055Z,31.01
2018-07-03T19:02:07.591Z,30.95
2018-07-03T19:04:36.383Z,30.85
2018-07-03T19:07:05.375Z,30.79
2018-07-03T19:09:33.343Z,30.68
2018-07-03T19:12:05.299Z,30.58
2018-07-03T19:14:33.510Z,30.48
2018-07-03T19:17:01.332Z,30.35
2018-07-03T19:19:30.542Z,30.10
2018-07-03T19:22:02.237Z,29.88
2018-07-03T19:24:32.157Z,29.73
2018-07-03T19:27:00.067Z,29.56
2018-07-03T19:29:28.247Z,29.43
2018-07-03T19:31:57.041Z,29.26
2018-07-03T19:34:24.911Z,29.07
2018-07-03T19:36:53.217Z,28.94
2018-07-03T19:39:22.443Z,28.79
2018-07-03T19:41:54.015Z,28.66
2018-07-03T19:44:23.687Z,28.52
2018-07-03T19:46:51.839Z,28.35
2018-07-03T19:49:20.030Z,28.16
2018-07-03T19:51:48.335Z,27.95
2018-07-03T19:54:17.607Z,27.76
2018-07-03T19:56:45.393Z,27.60
2018-07-03T19:59:13.620Z,27.45
2018-07-03T20:01:42.042Z,27.34
2018-07-03T20:04:10.847Z,27.20
2018-07-03T20:06:40.325Z,27.07
2018-07-03T20:09:08.379Z,26.93
2018-07-03T20:11:36.212Z,26.79
2018-07-03T20:14:04.409Z,26.64
2018-07-03T20:16:32.204Z,26.49
2018-07-03T20:19:02.767Z,26.35
2018-07-03T20:21:31.767Z,26.19
2018-07-03T20:23:59.909Z,26.04
2018-07-03T20:26:27.700Z,25.90
2018-07-03T20:28:56.775Z,25.77
2018-07-03T20:31:24.628Z,25.63
2018-07-03T20:33:55.031Z,25.48
2018-07-03T20:36:23.266Z,25.34
2018-07-03T20:38:52.136Z,25.16
2018-07-03T20:41:20.589Z,25.00
2018-07-03T20:43:48.870Z,24.84
2018-07-03T20:46:17.598Z,24.72
2018-07-03T20:48:48.545Z,24.64
2018-07-03T20:51:17.657Z,24.59
2018-07-03T20:53:45.846Z,24.54
2018-07-03T20:56:16.624Z,24.48
2018-07-03T20:58:45.787Z,24.36
2018-07-03T21:01:14.526Z,24.20
2018-07-03T21:03:44.043Z,24.11
2018-07-03T21:06:12.892Z,24.01
2018-07-03T21:08:41.496Z,23.91
2018-07-03T21:11:09.346Z,23.78
2018-07-03T21:13:37.589Z,23.63
2018-07-03T21:16:05.411Z,23.52
2018-07-03T21:18:33.414Z,23.44
2018-07-03T21:21:01.604Z,23.37
2018-07-03T21:23:30.349Z,23.28
2018-07-03T21:25:58.722Z,23.19
2018-07-03T21:28:29.385Z,23.08
2018-07-03T21:30:58.043Z,22.96
2018-07-03T21:33:26.464Z,22.85
2018-07-03T21:35:57.115Z,22.72
2018-07-03T21:38:25.641Z,22.65
2018-07-03T21:40:54.116Z,22.56
2018-07-03T21:43:22.362Z,22.51
2018-07-03T21:45:50.164Z,22.44
2018-07-03T21:48:19.915Z,22.34
2018-07-03T21:50:48.855Z,22.23
2018-07-03T21:53:16.646Z,22.15
2018-07-03T21:55:44.428Z,22.10
2018-07-03T21:58:12.216Z,22.00
2018-07-03T22:00:44.915Z,21.90
2018-07-03T22:03:15.233Z,21.87
2018-07-03T22:05:43.868Z,21.81
2018-07-03T22:08:11.780Z,21.76
2018-07-03T22:10:40.937Z,21.67
2018-07-03T22:13:08.721Z,21.58
2018-07-03T22:15:36.494Z,21.52
2018-07-03T22:18:04.741Z,21.46
2018-07-03T22:20:32.534Z,21.41
2018-07-03T22:23:00.366Z,21.37
2018-07-03T22:25:28.528Z,21.33
2018-07-03T22:27:56.617Z,21.32
2018-07-03T22:30:24.989Z,21.30
2018-07-03T22:32:53.222Z,21.27
2018-07-03T22:35:20.992Z,21.23
2018-07-03T22:37:48.766Z,21.19
2018-07-03T22:40:19.688Z,21.17
2018-07-03T22:42:48.437Z,21.10
2018-07-03T22:45:16.756Z,21.04
2018-07-03T22:47:44.660Z,20.95
2018-07-03T22:50:13.804Z,20.91
2018-07-03T22:52:42.784Z,20.89
2018-07-03T22:55:10.857Z,20.79
2018-07-03T22:57:39.200Z,20.66
2018-07-03T23:00:07.229Z,20.60
2018-07-03T23:02:34.987Z,20.59
2018-07-03T23:05:03.183Z,20.61
2018-07-03T23:07:30.969Z,20.55
2018-07-03T23:09:58.736Z,20.50
2018-07-03T23:12:27.188Z,20.49
2018-07-03T23:14:55.452Z,20.47
2018-07-03T23:17:23.215Z,20.45
2018-07-03T23:19:51.910Z,20.43
2018-07-03T23:22:21.454Z,20.38
2018-07-03T23:24:49.228Z,20.29
2018-07-03T23:27:17.628Z,20.27
2018-07-03T23:29:46.541Z,20.26
2018-07-03T23:32:15.105Z,20.21
2018-07-03T23:34:43.060Z,20.14
2018-07-03T23:37:11.237Z,20.08
2018-07-03T23:39:39.464Z,20.03
2018-07-03T23:42:07.332Z,19.96
2018-07-03T23:44:35.240Z,19.92
2018-07-03T23:47:04.651Z,19.91
2018-07-03T23:49:32.758Z,19.90
2018-07-03T23:52:00.929Z,19.89
2018-07-03T23:54:28.676Z,19.84
2018-07-03T23:56:57.535Z,19.77
2018-07-03T23:59:26.297Z,19.75
